Tyrone, Oklahoma
Current Conditions -  °F | °C
As of 7:15 PM on Sunday 23 Nov 2014 (Local Time) from KLBL Reporting Station
Clear Clear  
Wind Chill: 32°   Ceiling: Unl
Heat Index: 37°   Visibility: 10mi
Dew Point: 10°   Wind: 7mph
Humidity: 33%   Direction: 310°NW
Pressure: 29.8"   Gusts: NA
Location:  36.95°N, 101.07°W
Report Text: KLBL 240115Z AUTO 31006KT 10SM CLR 03/M12 A2980 RMK AO1
Loading
Personal Weather Stations






























Interactive Weather Map New forecast layout! Learn more

10-Day Weather Forecast

Advertisements
Track Severe Weather on mobile